createdAt,value
2019-04-04T00:02:21.449Z,29.90
2019-04-04T00:04:52.349Z,29.80
2019-04-04T00:07:19.945Z,29.80
2019-04-04T00:09:48.229Z,29.80
2019-04-04T00:12:16.481Z,29.70
2019-04-04T00:14:44.804Z,29.70
2019-04-04T00:17:13.082Z,29.60
2019-04-04T00:19:42.260Z,29.50
2019-04-04T00:22:10.774Z,29.60
2019-04-04T00:24:39.616Z,29.40
2019-04-04T00:27:08.185Z,29.40
2019-04-04T00:29:36.493Z,29.30
2019-04-04T00:32:04.802Z,29.10
2019-04-04T00:34:33.117Z,29.00
2019-04-04T00:37:04.451Z,29.00
2019-04-04T00:39:31.369Z,29.10
2019-04-04T00:41:59.658Z,29.10
2019-04-04T00:44:27.936Z,29.10
2019-04-04T00:46:56.226Z,29.10
2019-04-04T00:49:24.754Z,29.10
2019-04-04T00:51:53.011Z,29.20
2019-04-04T00:54:21.314Z,29.10
2019-04-04T00:56:49.565Z,29.00
2019-04-04T00:59:17.847Z,29.00
2019-04-04T01:01:46.113Z,28.90
2019-04-04T01:04:14.396Z,28.70
2019-04-04T01:06:42.653Z,28.60
2019-04-04T01:09:13.241Z,28.50
2019-04-04T01:11:41.189Z,28.50
2019-04-04T01:14:09.713Z,28.40
2019-04-04T01:16:37.985Z,28.40
2019-04-04T01:19:06.270Z,28.40
2019-04-04T01:21:34.538Z,28.40
2019-04-04T01:24:02.814Z,28.30
2019-04-04T01:26:31.074Z,28.30
2019-04-04T01:28:59.694Z,28.30
2019-04-04T01:31:28.014Z,28.30
2019-04-04T01:33:56.313Z,28.20
2019-04-04T01:36:25.234Z,28.20
2019-04-04T01:38:54.557Z,28.20
2019-04-04T01:41:22.906Z,28.10
2019-04-04T01:44:04.307Z,28.10
2019-04-04T01:46:21.586Z,28.10
2019-04-04T01:48:50.537Z,28.10
2019-04-04T01:51:19.177Z,28.00
2019-04-04T01:53:47.527Z,28.00
2019-04-04T01:56:15.797Z,28.00
2019-04-04T01:58:44.077Z,27.90
2019-04-04T02:01:12.342Z,27.90
2019-04-04T02:03:40.653Z,27.90
2019-04-04T02:06:08.906Z,27.90
2019-04-04T02:08:37.214Z,27.80
2019-04-04T02:11:05.989Z,27.80
2019-04-04T02:13:34.341Z,27.70
2019-04-04T02:16:02.710Z,27.60
2019-04-04T02:18:31.195Z,27.70
2019-04-04T02:20:59.464Z,27.60
2019-04-04T02:23:27.713Z,27.60
2019-04-04T02:25:55.989Z,27.60
2019-04-04T02:28:24.477Z,27.50
2019-04-04T02:30:52.923Z,27.40
2019-04-04T02:33:21.188Z,27.50
2019-04-04T02:35:49.455Z,27.50
2019-04-04T02:38:17.724Z,27.40
2019-04-04T02:40:45.987Z,27.40
2019-04-04T02:43:14.252Z,27.40
2019-04-04T02:45:42.505Z,27.30
2019-04-04T02:48:10.778Z,27.30
2019-04-04T02:50:39.049Z,27.30
2019-04-04T02:53:07.339Z,27.30
2019-04-04T02:55:35.589Z,27.20
2019-04-04T02:58:03.890Z,27.10
2019-04-04T03:00:32.483Z,27.10
2019-04-04T03:03:00.798Z,27.10
2019-04-04T03:05:29.069Z,27.10
2019-04-04T03:07:57.326Z,27.10
2019-04-04T03:10:25.591Z,27.10
2019-04-04T03:12:58.011Z,27.00
2019-04-04T03:15:23.951Z,27.00
2019-04-04T03:17:52.193Z,27.00
2019-04-04T03:20:20.469Z,26.90
2019-04-04T03:22:48.725Z,26.90
2019-04-04T03:25:17.017Z,26.90
2019-04-04T03:27:45.329Z,26.90
2019-04-04T03:30:16.630Z,26.90
2019-04-04T03:32:52.009Z,26.80
2019-04-04T03:35:14.096Z,26.80
2019-04-04T03:37:45.957Z,26.80
2019-04-04T03:40:12.349Z,26.80
2019-04-04T03:42:43.977Z,26.70
2019-04-04T03:45:10.600Z,26.70
2019-04-04T03:47:43.439Z,26.70
2019-04-04T03:50:08.918Z,26.70
2019-04-04T03:52:37.488Z,26.60
2019-04-04T03:55:06.571Z,26.60
2019-04-04T03:57:34.895Z,26.60
2019-04-04T04:00:06.967Z,26.50
2019-04-04T04:02:34.494Z,26.50
2019-04-04T04:05:02.734Z,26.50
2019-04-04T04:07:31.002Z,26.40
2019-04-04T04:10:00.398Z,26.30
2019-04-04T04:12:28.969Z,26.30
2019-04-04T04:14:57.233Z,26.30
2019-04-04T04:17:25.495Z,26.30
2019-04-04T04:19:54.034Z,26.20
2019-04-04T04:22:22.524Z,26.20
2019-04-04T04:24:50.820Z,26.20
2019-04-04T04:27:19.064Z,26.20
2019-04-04T04:29:47.339Z,26.10
2019-04-04T04:32:15.934Z,26.10
2019-04-04T04:34:44.269Z,26.10
2019-04-04T04:37:12.546Z,26.10
2019-04-04T04:39:41.415Z,26.00
2019-04-04T04:42:09.900Z,25.90
2019-04-04T04:44:39.025Z,25.90
2019-04-04T04:47:07.442Z,25.90
2019-04-04T04:49:36.388Z,26.00
2019-04-04T04:52:04.761Z,25.90
2019-04-04T04:54:33.037Z,25.90
2019-04-04T04:57:04.165Z,25.90
2019-04-04T04:59:31.362Z,25.80
2019-04-04T05:01:59.641Z,25.90
2019-04-04T05:04:28.209Z,25.90
2019-04-04T05:06:57.143Z,25.80
2019-04-04T05:09:25.425Z,25.80
2019-04-04T05:11:53.681Z,25.80
2019-04-04T05:14:21.949Z,25.70
2019-04-04T05:16:50.461Z,25.70
2019-04-04T05:19:18.976Z,25.70
2019-04-04T05:21:47.862Z,25.70
2019-04-04T05:24:18.012Z,25.70
2019-04-04T05:26:46.355Z,25.60
2019-04-04T05:29:14.626Z,25.60
2019-04-04T05:31:42.881Z,25.60
2019-04-04T05:34:11.229Z,25.60
2019-04-04T05:36:39.480Z,25.60
2019-04-04T05:39:08.136Z,25.50
2019-04-04T05:41:37.406Z,25.50
2019-04-04T05:44:09.060Z,25.50
2019-04-04T05:46:35.826Z,25.50
2019-04-04T05:49:07.942Z,25.50
2019-04-04T05:51:36.171Z,25.50
2019-04-04T05:54:07.008Z,25.50
2019-04-04T05:56:34.075Z,25.50
2019-04-04T05:59:02.322Z,25.40
2019-04-04T06:01:30.815Z,25.40
2019-04-04T06:03:59.089Z,25.40
2019-04-04T06:06:27.336Z,25.30
2019-04-04T06:08:55.619Z,25.30
2019-04-04T06:11:23.872Z,25.30
2019-04-04T06:13:52.437Z,25.40
2019-04-04T06:16:20.738Z,25.30
2019-04-04T06:18:49.293Z,25.20
2019-04-04T06:21:18.828Z,25.20
2019-04-04T06:23:47.490Z,25.10
2019-04-04T06:26:15.730Z,25.10
2019-04-04T06:28:44.396Z,25.00
2019-04-04T06:31:13.321Z,25.10
2019-04-04T06:33:41.586Z,25.00
2019-04-04T06:36:09.865Z,25.00
2019-04-04T06:38:38.101Z,25.00
2019-04-04T06:41:06.370Z,25.00
2019-04-04T06:43:34.681Z,25.00
2019-04-04T06:46:02.967Z,24.90
2019-04-04T06:48:33.811Z,25.00
2019-04-04T06:51:01.473Z,25.00
2019-04-04T06:53:29.748Z,25.00
2019-04-04T06:56:00.381Z,25.00
2019-04-04T06:58:28.223Z,25.00
2019-04-04T07:00:56.478Z,24.90
2019-04-04T07:03:27.093Z,24.90
2019-04-04T07:05:55.991Z,24.80
2019-04-04T07:08:24.243Z,24.80
2019-04-04T07:10:57.863Z,24.80
2019-04-04T07:13:27.351Z,24.80
2019-04-04T07:16:06.021Z,24.80
2019-04-04T07:18:22.517Z,24.70
2019-04-04T07:20:50.765Z,24.70
2019-04-04T07:23:19.073Z,24.70
2019-04-04T07:25:47.313Z,24.70
2019-04-04T07:28:16.897Z,24.60
2019-04-04T07:30:45.783Z,24.60
2019-04-04T07:33:14.059Z,24.70
2019-04-04T07:35:42.380Z,24.60
2019-04-04T07:38:10.630Z,24.60
2019-04-04T07:40:38.888Z,24.60
2019-04-04T07:43:08.619Z,24.60
2019-04-04T07:45:37.091Z,24.50
2019-04-04T07:48:05.617Z,24.60
2019-04-04T07:50:33.857Z,24.50
2019-04-04T07:53:04.948Z,24.50
2019-04-04T07:55:32.132Z,24.50
2019-04-04T07:58:00.390Z,24.40
2019-04-04T08:00:28.666Z,24.40
2019-04-04T08:02:57.005Z,24.40
2019-04-04T08:05:25.341Z,24.40
2019-04-04T08:07:53.581Z,24.40
2019-04-04T08:10:21.853Z,24.30
2019-04-04T08:12:50.221Z,24.30
2019-04-04T08:15:18.467Z,24.30
2019-04-04T08:17:46.746Z,24.30
2019-04-04T08:20:15.244Z,24.30
2019-04-04T08:22:43.505Z,24.30
2019-04-04T08:25:11.840Z,24.40
2019-04-04T08:27:40.094Z,24.40
2019-04-04T08:30:08.365Z,24.40
2019-04-04T08:32:36.701Z,24.30
2019-04-04T08:35:06.411Z,24.30
2019-04-04T08:37:34.703Z,24.30
2019-04-04T08:40:03.817Z,24.30
2019-04-04T08:42:32.102Z,24.30
2019-04-04T08:45:00.666Z,24.30
2019-04-04T08:47:28.930Z,24.30
2019-04-04T08:49:57.176Z,24.30
2019-04-04T08:52:25.431Z,24.30
2019-04-04T08:54:53.704Z,24.30
2019-04-04T08:57:22.234Z,24.30
2019-04-04T08:59:50.493Z,24.30
2019-04-04T09:02:18.737Z,24.20
2019-04-04T09:04:47.250Z,24.20
2019-04-04T09:07:15.484Z,24.20
2019-04-04T09:09:44.021Z,24.10
2019-04-04T09:12:12.308Z,24.20
2019-04-04T09:14:41.258Z,24.10
2019-04-04T09:17:09.905Z,24.10
2019-04-04T09:19:38.422Z,24.10
2019-04-04T09:22:06.792Z,24.10
2019-04-04T09:24:36.987Z,24.10
2019-04-04T09:27:05.262Z,24.10
2019-04-04T09:29:33.744Z,24.10
2019-04-04T09:32:02.013Z,24.10
2019-04-04T09:34:30.297Z,24.10
2019-04-04T09:36:58.601Z,24.10
2019-04-04T09:39:27.029Z,24.00
2019-04-04T09:41:55.277Z,24.00
2019-04-04T09:44:23.543Z,24.00
2019-04-04T09:47:04.585Z,24.00
2019-04-04T09:49:21.781Z,24.00
2019-04-04T09:51:50.032Z,24.00
2019-04-04T09:54:19.519Z,24.00
2019-04-04T09:56:47.874Z,23.90
2019-04-04T09:59:16.129Z,24.00
2019-04-04T10:01:44.402Z,23.90
2019-04-04T10:04:12.741Z,23.90
2019-04-04T10:06:41.352Z,23.90
2019-04-04T10:09:15.714Z,24.00
2019-04-04T10:11:39.810Z,24.00
2019-04-04T10:14:08.072Z,24.10
2019-04-04T10:16:36.618Z,24.10
2019-04-04T10:19:04.891Z,24.20
2019-04-04T10:21:33.639Z,24.30
2019-04-04T10:24:01.902Z,24.40
2019-04-04T10:26:30.141Z,24.50
2019-04-04T10:28:58.413Z,24.50
2019-04-04T10:31:26.655Z,24.60
2019-04-04T10:33:54.925Z,24.60
2019-04-04T10:36:23.181Z,24.70
2019-04-04T10:38:51.430Z,24.80
2019-04-04T10:41:19.704Z,24.80
2019-04-04T10:43:48.196Z,24.80
2019-04-04T10:46:16.461Z,24.80
2019-04-04T10:48:44.964Z,24.80
2019-04-04T10:51:13.214Z,24.90
2019-04-04T10:53:41.481Z,24.90
2019-04-04T10:56:09.771Z,24.90
2019-04-04T10:58:38.280Z,24.90
2019-04-04T11:01:06.589Z,24.90
2019-04-04T11:03:34.834Z,24.90
2019-04-04T11:06:03.109Z,24.90
2019-04-04T11:08:31.395Z,24.90
2019-04-04T11:10:59.637Z,24.90
2019-04-04T11:13:33.853Z,24.90
2019-04-04T11:15:57.896Z,24.90
2019-04-04T11:18:26.173Z,24.90
2019-04-04T11:20:54.441Z,24.90
2019-04-04T11:23:22.709Z,24.90
2019-04-04T11:25:51.250Z,24.80
2019-04-04T11:28:19.517Z,24.80
2019-04-04T11:30:47.785Z,24.80
2019-04-04T11:33:16.052Z,25.50
2019-04-04T11:35:44.306Z,26.30
2019-04-04T11:38:12.561Z,26.70
2019-04-04T11:40:40.878Z,26.90
2019-04-04T11:43:09.214Z,26.90
2019-04-04T11:45:37.456Z,26.90
2019-04-04T11:48:05.725Z,26.80
2019-04-04T11:50:34.241Z,26.80
2019-04-04T11:53:02.511Z,26.70
2019-04-04T11:55:31.007Z,26.60
2019-04-04T11:57:59.551Z,26.60
2019-04-04T12:00:29.552Z,26.50
2019-04-04T12:02:58.037Z,26.50
2019-04-04T12:05:26.310Z,26.50
2019-04-04T12:07:54.623Z,26.50
2019-04-04T12:10:22.975Z,26.40
2019-04-04T12:12:51.266Z,26.30
2019-04-04T12:15:19.545Z,26.30
2019-04-04T12:17:48.086Z,26.30
2019-04-04T12:20:16.343Z,26.40
2019-04-04T12:22:44.865Z,26.40
2019-04-04T12:25:13.181Z,26.40
2019-04-04T12:27:41.680Z,26.30
2019-04-04T12:30:10.348Z,26.20
2019-04-04T12:32:38.633Z,26.20
2019-04-04T12:35:06.951Z,26.20
2019-04-04T12:37:35.194Z,26.20
2019-04-04T12:40:04.691Z,26.10
2019-04-04T12:42:33.016Z,26.10
2019-04-04T12:45:01.307Z,26.00
2019-04-04T12:47:29.835Z,26.00
2019-04-04T12:49:58.094Z,26.00
2019-04-04T12:52:26.341Z,25.90
2019-04-04T12:54:54.913Z,25.80
2019-04-04T12:57:23.165Z,25.70
2019-04-04T12:59:51.575Z,25.50
2019-04-04T13:02:19.822Z,25.40
2019-04-04T13:04:48.100Z,25.40
2019-04-04T13:07:16.449Z,25.30
2019-04-04T13:09:44.717Z,25.30
2019-04-04T13:12:12.975Z,25.20
2019-04-04T13:14:41.309Z,25.10
2019-04-04T13:17:09.565Z,25.00
2019-04-04T13:19:37.841Z,24.90
2019-04-04T13:22:06.109Z,25.00
2019-04-04T13:24:34.386Z,24.90
2019-04-04T13:27:02.634Z,24.80
2019-04-04T13:29:30.914Z,24.80
2019-04-04T13:31:59.194Z,24.80
2019-04-04T13:34:27.441Z,24.80
2019-04-04T13:36:55.954Z,24.80
2019-04-04T13:39:24.201Z,24.70
2019-04-04T13:41:52.493Z,24.70
2019-04-04T13:44:21.411Z,24.70
2019-04-04T13:46:50.738Z,24.70
2019-04-04T13:49:19.063Z,24.60
2019-04-04T13:51:47.338Z,24.60
2019-04-04T13:54:15.592Z,24.60
2019-04-04T13:56:43.946Z,24.60
2019-04-04T13:59:12.230Z,24.60
2019-04-04T14:01:42.768Z,24.50
2019-04-04T14:04:10.472Z,24.50
2019-04-04T14:06:38.718Z,24.50
2019-04-04T14:09:12.051Z,24.50
2019-04-04T14:11:41.323Z,24.50
2019-04-04T14:14:08.743Z,24.40
2019-04-04T14:16:37.230Z,24.50
2019-04-04T14:19:05.509Z,24.50
2019-04-04T14:21:34.027Z,24.40
2019-04-04T14:24:12.378Z,24.40
2019-04-04T14:26:32.573Z,24.40
2019-04-04T14:29:03.706Z,24.40
2019-04-04T14:31:31.102Z,24.40
2019-04-04T14:33:59.493Z,24.40
2019-04-04T14:36:27.764Z,24.30
2019-04-04T14:38:56.273Z,24.40
2019-04-04T14:41:24.550Z,24.40
2019-04-04T14:43:52.811Z,24.40
2019-04-04T14:46:21.095Z,24.30
2019-04-04T14:48:49.421Z,24.40
2019-04-04T14:51:17.953Z,24.40
2019-04-04T14:53:46.265Z,24.40
2019-04-04T14:56:14.508Z,24.40
2019-04-04T14:58:42.786Z,24.40
2019-04-04T15:01:11.053Z,24.40
2019-04-04T15:03:42.098Z,24.40
2019-04-04T15:06:09.338Z,24.40
2019-04-04T15:08:37.629Z,24.40
2019-04-04T15:11:06.198Z,24.40
2019-04-04T15:13:34.635Z,24.30
2019-04-04T15:16:12.908Z,24.30
2019-04-04T15:18:41.470Z,24.30
2019-04-04T15:21:09.751Z,24.30
2019-04-04T15:23:38.227Z,24.20
2019-04-04T15:26:09.529Z,24.30
2019-04-04T15:28:36.538Z,24.30
2019-04-04T15:31:05.213Z,24.30
2019-04-04T15:33:33.490Z,24.20
2019-04-04T15:36:01.767Z,24.20
2019-04-04T15:38:30.261Z,24.20
2019-04-04T15:40:58.537Z,24.20
2019-04-04T15:43:26.818Z,24.10
2019-04-04T15:45:55.192Z,24.10
2019-04-04T15:48:23.460Z,24.00
2019-04-04T15:50:51.721Z,24.00
2019-04-04T15:53:20.039Z,24.00
2019-04-04T15:55:48.301Z,23.90
2019-04-04T15:58:16.566Z,24.00
2019-04-04T16:00:44.917Z,24.00
2019-04-04T16:03:13.207Z,24.00
2019-04-04T16:05:41.456Z,24.00
2019-04-04T16:08:09.705Z,24.00
2019-04-04T16:10:37.981Z,23.90
2019-04-04T16:13:06.658Z,23.90
2019-04-04T16:15:34.933Z,23.90
2019-04-04T16:18:03.337Z,23.80
2019-04-04T16:20:31.645Z,23.90
2019-04-04T16:22:59.922Z,23.90
2019-04-04T16:25:28.173Z,23.90
2019-04-04T16:27:56.517Z,23.90
2019-04-04T16:30:24.770Z,23.80
2019-04-04T16:32:53.116Z,23.90
2019-04-04T16:35:21.394Z,23.80
2019-04-04T16:37:49.660Z,23.80
2019-04-04T16:40:17.926Z,23.80
2019-04-04T16:42:46.204Z,23.80
2019-04-04T16:45:14.541Z,23.70
2019-04-04T16:47:43.076Z,23.70
2019-04-04T16:50:11.661Z,23.70
2019-04-04T16:52:39.937Z,23.60
2019-04-04T16:55:08.216Z,23.60
2019-04-04T16:57:36.489Z,23.70
2019-04-04T17:00:09.374Z,23.80
2019-04-04T17:02:37.641Z,23.70
2019-04-04T17:05:05.903Z,23.70
2019-04-04T17:07:34.185Z,23.60
2019-04-04T17:10:02.713Z,23.60
2019-04-04T17:12:30.987Z,23.60
2019-04-04T17:14:59.234Z,23.60
2019-04-04T17:17:27.738Z,23.60
2019-04-04T17:19:56.011Z,23.60
2019-04-04T17:22:24.265Z,23.60
2019-04-04T17:24:52.536Z,23.60
2019-04-04T17:27:21.025Z,23.60
2019-04-04T17:29:49.785Z,23.60
2019-04-04T17:32:18.342Z,23.70
2019-04-04T17:34:47.058Z,23.70
2019-04-04T17:37:15.361Z,23.70
2019-04-04T17:39:43.898Z,23.70
2019-04-04T17:42:12.458Z,23.70
2019-04-04T17:44:40.917Z,23.70
2019-04-04T17:47:09.259Z,23.60
2019-04-04T17:49:37.574Z,23.60
2019-04-04T17:52:05.852Z,23.60
2019-04-04T17:54:34.134Z,23.60
2019-04-04T17:57:02.912Z,23.60
2019-04-04T17:59:31.266Z,23.60
2019-04-04T18:01:59.516Z,23.60
2019-04-04T18:04:28.014Z,23.60
2019-04-04T18:06:56.533Z,23.60
2019-04-04T18:09:31.611Z,23.50
2019-04-04T18:11:54.785Z,23.50
2019-04-04T18:14:23.041Z,23.50
2019-04-04T18:16:51.314Z,23.50
2019-04-04T18:19:19.849Z,23.40
2019-04-04T18:21:48.175Z,23.40
2019-04-04T18:24:16.425Z,23.40
2019-04-04T18:26:44.702Z,23.40
2019-04-04T18:29:12.957Z,23.40
2019-04-04T18:31:41.211Z,23.40
2019-04-04T18:34:09.664Z,23.40
2019-04-04T18:36:38.220Z,23.40
2019-04-04T18:39:08.073Z,23.40
2019-04-04T18:41:36.649Z,23.50
2019-04-04T18:44:05.171Z,23.50
2019-04-04T18:46:33.410Z,23.60
2019-04-04T18:49:01.986Z,23.60
2019-04-04T18:51:30.257Z,23.60
2019-04-04T18:53:58.529Z,23.70
2019-04-04T18:56:26.785Z,23.70
2019-04-04T18:58:55.290Z,23.70
2019-04-04T19:01:23.557Z,23.80
2019-04-04T19:03:52.101Z,23.80
2019-04-04T19:06:20.449Z,23.80
2019-04-04T19:08:50.694Z,23.80
2019-04-04T19:11:18.695Z,23.80
2019-04-04T19:13:47.126Z,23.80
2019-04-04T19:16:15.642Z,23.80
2019-04-04T19:18:43.896Z,23.80
2019-04-04T19:21:12.273Z,23.80
2019-04-04T19:23:49.005Z,23.80
2019-04-04T19:26:10.634Z,23.90
2019-04-04T19:28:39.057Z,23.80
2019-04-04T19:31:07.402Z,23.80
2019-04-04T19:33:35.662Z,23.80
2019-04-04T19:36:04.213Z,23.80
2019-04-04T19:38:32.467Z,23.80
2019-04-04T19:41:00.746Z,23.80
2019-04-04T19:43:29.274Z,23.80
2019-04-04T19:45:57.821Z,23.80
2019-04-04T19:48:26.093Z,23.90
2019-04-04T19:50:55.710Z,23.90
2019-04-04T19:53:24.099Z,23.90
2019-04-04T19:55:52.536Z,23.80
2019-04-04T19:58:20.849Z,23.80
2019-04-04T20:00:49.190Z,23.80
2019-04-04T20:03:17.681Z,23.80
2019-04-04T20:05:46.192Z,23.80
2019-04-04T20:08:14.524Z,23.80
2019-04-04T20:10:42.872Z,23.80
2019-04-04T20:13:11.165Z,23.80
2019-04-04T20:15:39.675Z,23.70
2019-04-04T20:18:07.953Z,23.60
2019-04-04T20:20:36.221Z,23.60
2019-04-04T20:23:04.472Z,23.50
2019-04-04T20:25:32.742Z,23.50
2019-04-04T20:28:01.268Z,23.50
2019-04-04T20:30:39.089Z,23.50
2019-04-04T20:33:08.173Z,23.50
2019-04-04T20:35:36.436Z,23.40
2019-04-04T20:38:04.780Z,23.40
2019-04-04T20:40:33.055Z,23.40
2019-04-04T20:43:01.309Z,23.40
2019-04-04T20:45:30.564Z,23.40
2019-04-04T20:47:58.825Z,23.30
2019-04-04T20:50:27.101Z,23.40
2019-04-04T20:52:55.384Z,23.30
2019-04-04T20:55:23.879Z,23.30
2019-04-04T20:57:52.169Z,23.30
2019-04-04T21:00:20.559Z,23.30
2019-04-04T21:02:48.874Z,23.20
2019-04-04T21:05:17.156Z,23.20
2019-04-04T21:07:45.441Z,23.20
2019-04-04T21:10:13.949Z,23.20
2019-04-04T21:12:42.221Z,23.10
2019-04-04T21:15:10.476Z,23.10
2019-04-04T21:17:38.967Z,23.10
2019-04-04T21:20:07.289Z,23.10
2019-04-04T21:22:35.546Z,23.10
2019-04-04T21:25:04.241Z,23.10
2019-04-04T21:27:32.520Z,23.10
2019-04-04T21:30:00.786Z,23.00
2019-04-04T21:32:29.210Z,23.00
2019-04-04T21:34:57.480Z,22.90
2019-04-04T21:37:25.740Z,22.90
2019-04-04T21:39:54.274Z,23.00
2019-04-04T21:42:22.763Z,22.90
2019-04-04T21:44:51.038Z,22.90
2019-04-04T21:47:19.283Z,22.90
2019-04-04T21:49:47.553Z,22.90
2019-04-04T21:52:16.046Z,22.80
2019-04-04T21:54:44.318Z,22.80
2019-04-04T21:57:12.815Z,22.80
2019-04-04T21:59:41.409Z,22.80
2019-04-04T22:02:09.720Z,22.80
2019-04-04T22:04:37.961Z,22.70
2019-04-04T22:07:06.547Z,22.70
2019-04-04T22:09:34.825Z,22.70
2019-04-04T22:12:03.102Z,22.70
2019-04-04T22:14:31.372Z,22.60
2019-04-04T22:16:59.643Z,22.60
2019-04-04T22:19:27.955Z,22.60
2019-04-04T22:21:56.197Z,22.60
2019-04-04T22:24:24.715Z,22.60
2019-04-04T22:26:52.984Z,22.50
2019-04-04T22:29:21.267Z,22.60
2019-04-04T22:31:49.536Z,22.50
2019-04-04T22:34:17.829Z,22.50
2019-04-04T22:36:46.094Z,22.50
2019-04-04T22:39:14.429Z,22.50
2019-04-04T22:41:42.714Z,22.40
2019-04-04T22:44:11.282Z,22.40
2019-04-04T22:46:39.773Z,22.40
2019-04-04T22:49:08.036Z,22.40
2019-04-04T22:51:36.284Z,22.40
2019-04-04T22:54:04.810Z,22.30
2019-04-04T22:56:33.058Z,22.30
2019-04-04T22:59:01.560Z,22.30
2019-04-04T23:01:30.059Z,22.30
2019-04-04T23:03:58.565Z,22.30
2019-04-04T23:06:26.829Z,22.30
2019-04-04T23:08:55.083Z,22.30
2019-04-04T23:11:23.353Z,22.30
2019-04-04T23:13:51.605Z,22.20
2019-04-04T23:16:19.869Z,22.20
2019-04-04T23:18:48.123Z,22.20
2019-04-04T23:21:16.389Z,22.20
2019-04-04T23:23:44.676Z,22.10
2019-04-04T23:26:12.916Z,22.10
2019-04-04T23:28:41.184Z,22.10
2019-04-04T23:31:09.450Z,22.10
2019-04-04T23:33:37.718Z,22.10
2019-04-04T23:36:05.966Z,22.10
2019-04-04T23:38:34.300Z,22.10
2019-04-04T23:41:02.555Z,22.10
2019-04-04T23:43:30.819Z,22.00
2019-04-04T23:45:59.308Z,22.00
2019-04-04T23:48:27.573Z,22.00
2019-04-04T23:50:55.841Z,22.10
2019-04-04T23:53:24.127Z,22.00
2019-04-04T23:55:52.371Z,22.00
2019-04-04T23:58:20.601Z,22.00
